San Francisco, California
Traffic Map
Current Weather Conditions
San Francisco, California
Scattered Clouds
Scattered Clouds
12°
Feels Like: 12°
Wind Chill: 12° Ceiling: Unl
Heat Index: 12° Visibility: 10mi
Dew Point: Wind: 24mph
Humidity: 80% Direction: 290° (WNW)
Pressure: 30.08in Gusts: 0mph
Raw Report DataKSFO 250656Z 29021KT 10SM FEW015 SCT140 12/09 A3008 RMK AO2 PK WND 28027/0645 SLP186 T01220089
Traffic Incident Summary
Active as of:
Severity:
Category:
InformationThere was an issue retrieving the traffic information for this location. Please try a different location or try again shortly.
Advertisements
Track Severe Weather on mobile